Time;durP1;ratioP1;P1;durP2;ratioP2;P2;SDS_P1;SDS_P2;PMS_P1;PMS_P2;Temp;Humidity;BMP_temperature;BMP_pressure;BME280_temperature;BME280_humidity;BME280_pressure;Samples;Min_cycle;Max_cycle;Signal;HPM_P1;HPM_P2
2022/06/10 00:00:58;;;;;;;3.12;2.70;;;;;;;20.44;50.55;99452.25;1545539;92;21426;-77
2022/06/10 00:03:25;;;;;;;5.03;2.50;;;;;;;20.40;50.84;99447.75;1557501;89;21011;-73
2022/06/10 00:05:56;;;;;;;3.27;2.95;;;;;;;20.37;51.03;99453.87;1578698;89;21076;-75
2022/06/10 00:08:27;;;;;;;6.70;2.67;;;;;;;20.34;51.13;99457.22;1574110;91;21095;-74
2022/06/10 00:10:57;;;;;;;6.67;2.92;;;;;;;20.28;51.23;99453.02;1574603;91;21528;-73
2022/06/10 00:13:27;;;;;;;2.80;2.60;;;;;;;20.24;51.39;99455.57;1574817;91;21252;-74
2022/06/10 00:15:56;;;;;;;5.40;2.52;;;;;;;20.23;51.46;99458.08;1560093;90;21036;-74
2022/06/10 00:18:26;;;;;;;6.58;2.75;;;;;;;20.19;51.83;99453.58;1597430;89;21049;-75
2022/06/10 00:20:55;;;;;;;2.50;2.10;;;;;;;20.15;52.02;99454.75;1597193;89;21037;-70
2022/06/10 00:23:22;;;;;;;6.85;3.27;;;;;;;20.10;52.17;99448.63;1597034;88;21162;-71
2022/06/10 00:25:49;;;;;;;3.70;2.98;;;;;;;20.08;52.17;99454.44;1596741;88;21030;-70
2022/06/10 00:28:15;;;;;;;4.90;2.85;;;;;;;20.07;52.40;99456.91;1581657;90;21123;-72
2022/06/10 00:30:42;;;;;;;4.28;2.87;;;;;;;20.04;52.51;99457.56;1581840;90;20986;-68
2022/06/10 00:33:10;;;;;;;7.17;2.55;;;;;;;20.00;52.45;99454.64;1580986;89;21072;-71
2022/06/10 00:35:36;;;;;;;3.15;2.83;;;;;;;19.96;52.72;99455.59;1588406;89;21142;-71
2022/06/10 00:38:05;;;;;;;4.92;2.95;;;;;;;19.90;53.10;99458.25;1581780;90;22242;-72
2022/06/10 00:40:36;;;;;;;6.45;2.92;;;;;;;19.83;53.20;99454.61;1559281;90;21059;-68
2022/06/10 00:43:03;;;;;;;4.25;2.83;;;;;;;19.81;53.34;99456.02;1581459;90;21071;-70
2022/06/10 00:46:03;;;;;;;3.37;2.62;;;;;;;19.76;53.39;99451.52;1605251;89;21116;-73
2022/06/10 00:48:53;;;;;;;4.40;3.40;;;;;;;19.74;53.61;99457.88;1605975;88;21126;-74
2022/06/10 00:51:45;;;;;;;8.48;2.60;;;;;;;19.71;53.70;99458.48;1603739;89;21124;-72
2022/06/10 00:54:29;;;;;;;10.28;3.02;;;;;;;19.69;53.87;99457.20;1624998;88;21006;-71
2022/06/10 00:57:13;;;;;;;3.55;2.72;;;;;;;19.65;54.01;99457.59;1651335;86;21539;-72
2022/06/10 01:00:07;;;;;;;2.92;2.67;;;;;;;19.59;54.33;99459.66;1634752;86;21197;-71
2022/06/10 01:02:35;;;;;;;6.25;4.45;;;;;;;19.56;54.35;99458.92;1607995;87;21454;-70
2022/06/10 01:05:13;;;;;;;2.80;2.45;;;;;;;19.53;54.58;99458.98;1615807;86;21477;-72
2022/06/10 01:07:44;;;;;;;4.00;2.80;;;;;;;19.49;54.80;99453.91;1662115;86;21105;-70
2022/06/10 01:10:14;;;;;;;5.22;2.90;;;;;;;19.44;55.09;99458.70;1637043;86;20962;-72
2022/06/10 01:13:15;;;;;;;6.40;3.02;;;;;;;19.38;55.36;99459.91;1641276;86;21009;-71
2022/06/10 01:15:56;;;;;;;2.30;2.10;;;;;;;19.34;55.55;99458.93;1635905;87;21609;-72
2022/06/10 01:18:50;;;;;;;9.20;3.47;;;;;;;19.31;55.68;99464.47;1636530;86;20966;-72
2022/06/10 01:21:39;;;;;;;3.72;2.27;;;;;;;19.25;56.03;99453.44;1664569;86;21032;-74
2022/06/10 01:24:54;;;;;;;5.67;3.02;;;;;;;19.19;56.25;99457.41;1663206;86;21038;-74
2022/06/10 01:27:48;;;;;;;3.58;2.80;;;;;;;19.14;56.33;99461.07;1659465;86;21081;-72
2022/06/10 01:30:37;;;;;;;;;;;;;;;19.11;56.65;99460.34;1667562;86;21069;-72
2022/06/10 01:33:21;;;;;;;4.33;3.42;;;;;;;19.06;56.94;99470.01;1634705;86;21574;-74
2022/06/10 01:35:56;;;;;;;3.90;2.95;;;;;;;19.04;56.68;99472.23;1618349;86;21601;-71
2022/06/10 01:38:34;;;;;;;3.65;2.80;;;;;;;19.05;56.74;99468.95;1664979;86;21112;-71
2022/06/10 01:41:15;;;;;;;4.78;3.58;;;;;;;19.05;56.99;99475.21;1635086;86;21077;-69
2022/06/10 01:44:08;;;;;;;9.23;3.70;;;;;;;19.02;57.18;99476.39;1640983;86;21081;-72
2022/06/10 01:46:39;;;;;;;3.30;2.60;;;;;;;18.95;57.40;99472.73;1636129;86;21026;-72
2022/06/10 01:49:31;;;;;;;9.65;3.27;;;;;;;18.92;57.49;99472.55;1662433;86;21056;-75
2022/06/10 01:52:27;;;;;;;3.67;3.30;;;;;;;18.92;57.55;99476.64;1637783;86;21022;-73
2022/06/10 01:55:18;;;;;;;7.87;3.15;;;;;;;18.80;58.33;99479.91;1652578;86;21056;-72
2022/06/10 01:58:00;;;;;;;3.47;3.15;;;;;;;18.70;58.74;99474.73;1614378;87;21598;-73
2022/06/10 02:00:30;;;;;;;4.33;3.90;;;;;;;18.61;59.12;99484.72;1639903;86;21691;-78
2022/06/10 02:03:15;;;;;;;5.83;3.83;;;;;;;18.55;59.41;99481.33;1640825;85;20946;-77
2022/06/10 02:05:47;;;;;;;3.90;3.60;;;;;;;18.50;59.72;99486.05;1635694;87;21017;-77
2022/06/10 02:08:19;;;;;;;4.15;3.67;;;;;;;18.45;59.94;99488.34;1610405;87;21086;-77
2022/06/10 02:11:02;;;;;;;7.80;4.12;;;;;;;18.45;60.07;99484.80;1610660;87;21578;-76
2022/06/10 02:13:52;;;;;;;4.80;4.05;;;;;;;18.42;60.05;99488.93;1633717;86;21134;-78
2022/06/10 02:16:27;;;;;;;4.75;4.17;;;;;;;18.41;60.04;99489.26;1666658;85;21536;-79
2022/06/10 02:19:04;;;;;;;9.55;4.12;;;;;;;18.37;60.52;99484.95;1626879;87;21047;-77
2022/06/10 02:21:39;;;;;;;5.47;4.17;;;;;;;18.34;60.77;99490.22;1625267;88;21042;-77
2022/06/10 02:24:17;;;;;;;7.30;4.97;;;;;;;18.28;61.04;99486.80;1637752;86;20970;-77
2022/06/10 02:26:46;;;;;;;4.85;4.35;;;;;;;18.36;60.39;99483.92;1625594;87;21078;-76
2022/06/10 02:29:19;;;;;;;5.28;4.30;;;;;;;18.40;60.43;99487.64;1635017;87;21030;-75
2022/06/10 02:31:53;;;;;;;5.17;4.58;;;;;;;18.37;60.95;99493.71;1635406;87;21102;-75
2022/06/10 02:34:20;;;;;;;5.67;4.85;;;;;;;18.29;61.26;99493.30;1645141;86;21551;-76
2022/06/10 02:37:07;;;;;;;6.28;4.33;;;;;;;18.29;61.24;99500.66;1663531;86;21700;-74
2022/06/10 02:40:20;;;;;;;9.00;4.35;;;;;;;18.35;61.04;99499.45;1656752;86;22192;-76
2022/06/10 02:43:01;;;;;;;6.33;4.87;;;;;;;18.34;61.12;99507.36;1634558;86;21061;-74
2022/06/10 02:45:36;;;;;;;9.38;4.78;;;;;;;18.34;61.45;99509.28;1663826;85;21082;-76
2022/06/10 02:48:17;;;;;;;9.50;5.22;;;;;;;18.36;61.45;99508.43;1663415;86;20999;-77
2022/06/10 02:50:44;;;;;;;9.93;5.33;;;;;;;18.40;61.42;99510.23;1644159;86;21554;-76
2022/06/10 02:53:11;;;;;;;6.85;5.08;;;;;;;18.42;61.35;99507.19;1638000;86;21163;-75
2022/06/10 02:55:38;;;;;;;6.12;5.50;;;;;;;18.46;61.27;99514.47;1645649;87;20966;-76
2022/06/10 03:01:30;;;;;;;10.60;6.03;;;;;;;18.56;61.12;99511.52;1625426;87;20969;-75
2022/06/10 03:04:23;;;;;;;10.45;5.80;;;;;;;18.63;61.07;99507.83;1635537;87;21085;-75
2022/06/10 03:07:29;;;;;;;10.20;6.70;;;;;;;18.65;61.33;99510.26;1636530;87;21418;-75
2022/06/10 03:10:34;;;;;;;8.78;5.40;;;;;;;18.65;61.44;99514.34;1635963;87;21550;-73
2022/06/10 03:13:39;;;;;;;7.78;6.30;;;;;;;18.65;61.79;99514.34;1622536;87;21068;-73
2022/06/10 03:16:17;;;;;;;12.50;6.83;;;;;;;18.65;61.97;99519.80;1611616;87;21036;-73
2022/06/10 03:19:20;;;;;;;12.80;6.97;;;;;;;18.68;61.98;99516.45;1593995;90;21018;-73
2022/06/10 03:22:05;;;;;;;11.30;7.62;;;;;;;18.70;62.04;99517.73;1612989;88;21147;-73
2022/06/10 03:25:04;;;;;;;11.38;8.08;;;;;;;18.71;62.16;99512.55;1588562;89;21000;-76
2022/06/10 03:28:01;;;;;;;12.98;7.25;;;;;;;18.78;62.18;99521.66;1613486;89;21077;-75
2022/06/10 03:30:32;;;;;;;9.15;8.25;;;;;;;18.83;62.10;99518.02;1599222;87;21047;-76
2022/06/10 03:33:11;;;;;;;16.82;7.55;;;;;;;18.88;61.98;99516.53;1613189;89;21127;-75
2022/06/10 03:35:44;;;;;;;10.85;8.05;;;;;;;18.94;61.83;99514.75;1606317;89;21275;-75
2022/06/10 03:38:10;;;;;;;9.55;8.20;;;;;;;19.01;61.69;99519.20;1613626;89;21643;-75
2022/06/10 03:40:38;;;;;;;10.80;8.23;;;;;;;19.07;61.61;99519.34;1612977;89;21063;-76
2022/06/10 03:43:06;;;;;;;12.98;8.93;;;;;;;19.11;61.61;99516.78;1600030;88;21072;-74
2022/06/10 03:45:40;;;;;;;11.90;8.98;;;;;;;19.14;61.49;99514.23;1613572;87;21159;-74
2022/06/10 03:48:12;;;;;;;11.75;9.05;;;;;;;19.18;61.53;99519.31;1594958;90;21256;-76
2022/06/10 03:50:39;;;;;;;12.70;8.75;;;;;;;19.21;61.64;99517.09;1614645;87;20984;-75
2022/06/10 03:53:08;;;;;;;14.87;8.95;;;;;;;19.28;61.53;99514.16;1599564;88;21074;-75
2022/06/10 03:55:34;;;;;;;11.90;9.15;;;;;;;19.38;61.32;99518.55;1639844;87;21036;-75
2022/06/10 03:58:01;;;;;;;14.07;8.78;;;;;;;19.46;61.05;99515.13;1628932;87;21578;-75
2022/06/10 04:00:28;;;;;;;13.08;9.65;;;;;;;19.54;60.80;99513.80;1612757;89;21261;-76
2022/06/10 04:02:55;;;;;;;15.05;9.43;;;;;;;19.64;60.66;99521.46;1555894;88;21031;-76
2022/06/10 04:05:22;;;;;;;17.40;10.43;;;;;;;19.69;60.60;99511.78;1617600;87;21028;-75
2022/06/10 04:07:49;;;;;;;11.22;9.40;;;;;;;19.75;60.45;99520.89;1628337;88;21567;-76
2022/06/10 04:10:21;;;;;;;14.43;10.03;;;;;;;19.82;60.35;99516.33;1629941;87;20995;-77
2022/06/10 04:12:48;;;;;;;10.48;8.73;;;;;;;19.86;60.24;99524.12;1602875;88;21333;-76
2022/06/10 04:15:17;;;;;;;19.95;11.68;;;;;;;19.92;60.31;99523.67;1611041;88;21065;-76
2022/06/10 04:17:45;;;;;;;16.23;10.80;;;;;;;19.95;60.35;99529.86;1609086;89;21084;-76
2022/06/10 04:20:20;;;;;;;15.93;8.83;;;;;;;19.97;60.45;99531.73;1615459;87;21098;-75
2022/06/10 04:22:47;;;;;;;18.95;11.60;;;;;;;19.99;60.48;99535.52;1636684;87;21088;-78
2022/06/10 04:25:16;;;;;;;16.82;11.33;;;;;;;20.01;60.40;99538.16;1631639;87;22559;-76
2022/06/10 04:27:43;;;;;;;16.48;11.33;;;;;;;20.08;60.42;99534.17;1606176;87;21471;-76
2022/06/10 04:30:24;;;;;;;12.45;11.08;;;;;;;20.13;60.23;99534.03;1614791;87;21468;-75
2022/06/10 04:32:51;;;;;;;18.32;11.93;;;;;;;20.17;60.02;99541.27;1622690;87;21069;-75
2022/06/10 04:35:18;;;;;;;21.00;11.70;;;;;;;20.22;59.98;99546.59;1610488;88;21034;-75
2022/06/10 04:37:45;;;;;;;13.62;10.78;;;;;;;20.25;59.93;99546.51;1610448;89;21177;-76
2022/06/10 04:40:19;;;;;;;18.37;12.78;;;;;;;20.29;59.73;99553.75;1619982;87;21077;-75
2022/06/10 04:42:46;;;;;;;17.90;13.20;;;;;;;20.38;59.50;99560.66;1630583;87;21147;-75
2022/06/10 04:45:15;;;;;;;23.60;14.15;;;;;;;20.46;59.29;99558.50;1614177;87;21084;-77
2022/06/10 04:47:41;;;;;;;20.60;13.35;;;;;;;20.54;59.15;99560.43;1612162;89;21060;-78
2022/06/10 04:50:10;;;;;;;18.27;11.75;;;;;;;20.62;59.01;99561.03;1595114;89;22048;-78
2022/06/10 04:52:37;;;;;;;28.95;14.25;;;;;;;20.71;58.97;99567.31;1613179;89;21365;-74
2022/06/10 04:55:06;;;;;;;22.22;14.28;;;;;;;20.78;58.85;99565.45;1613176;88;21074;-76
2022/06/10 04:57:33;;;;;;;18.00;14.15;;;;;;;20.82;58.94;99567.78;1607463;89;21035;-73
2022/06/10 05:00:02;;;;;;;22.10;12.45;;;;;;;20.88;58.95;99567.88;1586987;89;21195;-73
2022/06/10 05:02:30;;;;;;;34.08;13.35;;;;;;;20.95;58.94;99574.23;1574708;89;21181;-73
2022/06/10 05:04:57;;;;;;;18.82;14.05;;;;;;;21.01;58.91;99579.21;1622905;87;21012;-73
2022/06/10 05:07:24;;;;;;;19.17;13.62;;;;;;;21.07;58.79;99577.13;1607843;87;21076;-74
2022/06/10 05:09:50;;;;;;;21.07;13.00;;;;;;;21.12;58.80;99587.91;1608491;89;21520;-74
2022/06/10 05:12:17;;;;;;;16.30;13.40;;;;;;;21.17;58.76;99588.58;1583967;89;21563;-74
2022/06/10 05:14:45;;;;;;;32.17;15.10;;;;;;;21.31;58.72;99591.95;1609112;88;21516;-76
2022/06/10 05:17:12;;;;;;;24.90;15.95;;;;;;;21.31;58.72;99591.95;1592407;88;21137;-75
2022/06/10 05:19:39;;;;;;;20.80;15.08;;;;;;;21.47;58.22;99594.20;1606206;87;21046;-81
2022/06/10 05:22:06;;;;;;;16.35;14.73;;;;;;;21.47;58.22;99594.20;1632912;87;21129;-76
2022/06/10 05:24:33;;;;;;;21.52;16.40;;;;;;;21.57;57.98;99598.77;1605463;87;21087;-78
2022/06/10 05:27:00;;;;;;;27.27;16.62;;;;;;;21.63;57.74;99596.09;1605669;87;21577;-75
2022/06/10 05:29:27;;;;;;;22.22;16.60;;;;;;;21.71;57.62;99597.22;1608260;87;21073;-78
2022/06/10 05:31:53;;;;;;;24.18;17.30;;;;;;;21.78;57.43;99608.45;1632895;87;20970;-79
2022/06/10 05:37:06;;;;;;;19.67;16.32;;;;;;;21.91;57.18;99603.93;1610087;87;21066;-74
2022/06/10 05:39:32;;;;;;;28.20;19.77;;;;;;;21.99;57.02;99601.75;1609970;87;21162;-73
2022/06/10 05:42:05;;;;;;;21.17;16.75;;;;;;;22.04;56.88;99601.02;1632621;87;21025;-76
2022/06/10 05:44:33;;;;;;;23.92;18.20;;;;;;;22.10;56.80;99606.55;1608547;87;21538;-75
2022/06/10 05:47:01;;;;;;;22.17;16.50;;;;;;;22.18;56.71;99610.38;1592426;90;21120;-75
2022/06/10 05:49:28;;;;;;;27.52;18.00;;;;;;;22.25;56.58;99610.69;1571883;88;21103;-78
2022/06/10 05:51:55;;;;;;;24.55;16.90;;;;;;;22.31;56.34;99607.17;1611365;87;21263;-80
2022/06/10 05:54:22;;;;;;;32.42;20.90;;;;;;;22.39;56.28;99611.83;1634976;87;21121;-77
2022/06/10 05:56:49;;;;;;;26.95;18.92;;;;;;;22.46;56.22;99617.02;1631110;87;21057;-79
2022/06/10 05:59:18;;;;;;;25.48;18.75;;;;;;;22.54;56.13;99614.80;1611386;87;21053;-80
2022/06/10 06:01:45;;;;;;;24.90;20.23;;;;;;;22.61;55.87;99620.58;1565577;90;21037;-74
2022/06/10 06:04:13;;;;;;;26.05;18.73;;;;;;;22.69;55.64;99624.39;1584242;90;21223;-78
2022/06/10 06:06:41;;;;;;;22.10;18.50;;;;;;;22.79;55.52;99624.60;1584361;89;21041;-80
2022/06/10 06:09:11;;;;;;;27.98;18.07;;;;;;;22.86;55.36;99624.33;1602877;87;21131;-81
2022/06/10 06:11:37;;;;;;;27.50;17.98;;;;;;;22.95;55.11;99629.19;1633531;87;21122;-79
2022/06/10 06:14:04;;;;;;;28.90;19.12;;;;;;;23.04;54.54;99620.32;1611432;87;21098;-81
2022/06/10 06:16:32;;;;;;;21.37;18.02;;;;;;;23.11;54.18;99625.28;1611055;87;21160;-81
2022/06/10 06:18:58;;;;;;;21.25;18.50;;;;;;;23.19;53.80;99626.34;1632640;87;21045;-80
2022/06/10 06:21:25;;;;;;;23.42;18.27;;;;;;;23.26;53.36;99627.40;1603111;88;21544;-81
2022/06/10 06:23:52;;;;;;;23.65;17.87;;;;;;;23.35;52.96;99625.41;1622551;88;21176;-82
2022/06/10 06:26:20;;;;;;;23.95;17.70;;;;;;;23.42;52.50;99623.48;1616530;88;21408;-82
2022/06/10 06:28:47;;;;;;;24.27;18.98;;;;;;;23.49;52.32;99619.66;1600919;88;21244;-81
2022/06/10 06:31:14;;;;;;;21.20;17.85;;;;;;;23.58;52.00;99626.44;1601007;89;21295;-83
2022/06/10 06:33:41;;;;;;;26.82;18.85;;;;;;;23.67;51.74;99627.16;1600669;89;21097;-82
2022/06/10 06:36:11;;;;;;;28.45;17.32;;;;;;;23.77;51.35;99633.60;1601209;88;21094;-78
2022/06/10 06:38:38;;;;;;;26.17;18.50;;;;;;;23.87;51.05;99627.12;1605941;88;21696;-80
2022/06/10 06:41:06;;;;;;;24.45;17.82;;;;;;;23.97;50.50;99626.45;1627193;88;21371;-77
2022/06/10 06:43:33;;;;;;;22.62;14.87;;;;;;;24.04;49.80;99632.17;1603607;88;21527;-79
2022/06/10 06:45:59;;;;;;;18.55;14.83;;;;;;;24.11;48.11;99631.05;1601127;88;21018;-79
2022/06/10 06:48:26;;;;;;;26.52;14.73;;;;;;;24.19;46.19;99630.98;1600673;89;21055;-76
2022/06/10 06:50:54;;;;;;;19.70;15.05;;;;;;;24.30;46.97;99639.02;1600707;89;21042;-77
2022/06/10 06:53:22;;;;;;;23.35;17.82;;;;;;;24.40;47.12;99634.21;1617508;88;21980;-72
2022/06/10 06:55:49;;;;;;;21.65;15.80;;;;;;;24.48;47.32;99638.22;1608125;88;21022;-78
2022/06/10 06:58:17;;;;;;;18.32;14.73;;;;;;;24.56;47.05;99634.55;1625206;87;21467;-78
2022/06/10 07:00:44;;;;;;;19.30;15.53;;;;;;;24.66;46.71;99640.16;1600862;89;21098;-77
2022/06/10 07:03:10;;;;;;;22.65;17.12;;;;;;;24.74;46.50;99639.25;1577468;89;21046;-77
2022/06/10 07:05:39;;;;;;;25.40;16.27;;;;;;;24.83;46.04;99635.00;1600839;89;21098;-76
2022/06/10 07:08:06;;;;;;;21.68;14.90;;;;;;;24.92;46.15;99637.08;1611596;88;22042;-77
2022/06/10 07:10:32;;;;;;;24.87;16.23;;;;;;;25.00;46.13;99641.64;1593180;89;21032;-79
2022/06/10 07:13:01;;;;;;;23.32;15.90;;;;;;;25.08;45.90;99635.22;1578887;89;21022;-76
2022/06/10 07:15:29;;;;;;;27.73;17.20;;;;;;;25.14;45.92;99639.31;1608582;88;21021;-77
2022/06/10 07:17:57;;;;;;;16.42;14.28;;;;;;;25.21;45.31;99632.66;1588858;88;21669;-76
2022/06/10 07:20:31;;;;;;;29.27;14.35;;;;;;;25.29;42.45;99641.91;1586619;90;21067;-74
2022/06/10 07:22:59;;;;;;;15.43;11.85;;;;;;;25.35;42.57;99647.41;1585947;90;21735;-73
2022/06/10 07:25:26;;;;;;;20.70;12.25;;;;;;;25.42;41.56;99649.02;1595825;88;21019;-75
2022/06/10 07:27:55;;;;;;;15.40;11.75;;;;;;;25.47;40.58;99645.41;1568289;91;21108;-76
2022/06/10 07:30:25;;;;;;;17.57;13.30;;;;;;;25.53;40.74;99648.14;1568360;91;21986;-75
2022/06/10 07:32:52;;;;;;;17.55;12.93;;;;;;;25.59;40.66;99639.89;1567462;91;21081;-74
2022/06/10 07:35:20;;;;;;;16.35;13.50;;;;;;;25.66;40.70;99640.65;1567180;91;20980;-80
2022/06/10 07:37:48;;;;;;;16.77;12.70;;;;;;;25.75;40.65;99641.33;1568065;91;21075;-78
2022/06/10 07:43:10;;;;;;;17.55;11.75;;;;;;;25.94;40.74;99646.16;1568536;91;21192;-78
2022/06/10 07:45:37;;;;;;;22.48;15.28;;;;;;;26.03;40.66;99651.73;1568342;91;21183;-77
2022/06/10 07:48:05;;;;;;;24.20;15.28;;;;;;;26.12;39.66;99648.80;1567611;91;21220;-76
2022/06/10 07:50:32;;;;;;;18.05;14.73;;;;;;;26.19;39.63;99648.97;1567139;91;21124;-76
2022/06/10 07:52:58;;;;;;;19.02;15.30;;;;;;;26.30;38.82;99650.66;1580846;89;21584;-76
2022/06/10 07:55:25;;;;;;;17.02;13.53;;;;;;;26.40;37.84;99648.17;1605254;89;22047;-79
2022/06/10 07:57:52;;;;;;;19.82;14.55;;;;;;;26.51;38.05;99649.82;1586975;89;21131;-74
2022/06/10 08:00:19;;;;;;;17.30;14.73;;;;;;;26.59;37.61;99646.64;1578670;90;21063;-73
2022/06/10 08:02:46;;;;;;;25.30;14.00;;;;;;;26.65;37.22;99651.55;1566717;90;21112;-74
2022/06/10 08:05:15;;;;;;;16.52;12.80;;;;;;;26.71;37.24;99648.74;1593467;90;21077;-72
2022/06/10 08:07:43;;;;;;;19.40;12.70;;;;;;;26.80;36.81;99650.72;1570188;90;21582;-73
2022/06/10 08:10:21;;;;;;;13.80;12.40;;;;;;;26.86;36.61;99655.39;1617312;88;21086;-72
2022/06/10 08:12:48;;;;;;;18.87;13.18;;;;;;;26.93;36.94;99650.63;1574777;90;21077;-71
2022/06/10 08:15:16;;;;;;;15.78;13.30;;;;;;;26.99;36.89;99645.05;1570521;90;21109;-73
2022/06/10 08:17:43;;;;;;;18.80;11.50;;;;;;;27.05;36.52;99647.16;1602003;89;21512;-73
2022/06/10 08:20:20;;;;;;;12.45;10.85;;;;;;;27.12;36.38;99645.14;1602914;89;21729;-72
2022/06/10 08:22:47;;;;;;;16.50;10.55;;;;;;;27.20;36.25;99649.07;1593656;89;21062;-72
2022/06/10 08:25:13;;;;;;;10.72;8.18;;;;;;;27.30;35.87;99650.46;1603010;89;21045;-73
2022/06/10 08:27:40;;;;;;;13.72;9.53;;;;;;;27.39;35.32;99649.66;1602870;89;21065;-73
2022/06/10 08:30:12;;;;;;;12.05;9.23;;;;;;;27.50;34.88;99641.05;1603294;89;21073;-74
2022/06/10 08:32:38;;;;;;;11.65;8.45;;;;;;;27.56;34.94;99643.75;1602736;89;21366;-73
2022/06/10 08:35:06;;;;;;;14.90;8.28;;;;;;;27.62;34.54;99649.21;1609052;88;20947;-73
2022/06/10 08:37:33;;;;;;;11.18;8.95;;;;;;;27.68;33.91;99648.31;1609077;87;21547;-75
2022/06/10 08:39:59;;;;;;;8.80;6.85;;;;;;;27.74;34.19;99645.48;1601581;89;21083;-74
2022/06/10 08:42:41;;;;;;;11.08;8.45;;;;;;;27.80;33.78;99649.55;1601467;89;21423;-74
2022/06/10 08:45:23;;;;;;;12.30;7.53;;;;;;;27.85;33.84;99647.06;1599448;89;21100;-75
2022/06/10 08:48:19;;;;;;;7.33;6.30;;;;;;;27.90;33.69;99649.53;1600623;89;20979;-75
2022/06/10 08:51:15;;;;;;;9.93;8.25;;;;;;;27.96;33.88;99646.69;1599634;89;21374;-72
2022/06/10 08:53:57;;;;;;;7.15;5.80;;;;;;;28.03;33.69;99646.23;1601808;89;21630;-74
2022/06/10 08:56:40;;;;;;;10.15;7.72;;;;;;;28.15;33.54;99650.83;1602645;88;21544;-74
2022/06/10 08:59:36;;;;;;;10.98;7.00;;;;;;;28.21;33.17;99646.56;1584182;88;21826;-73
2022/06/10 09:02:27;;;;;;;9.20;5.97;;;;;;;28.23;32.88;99654.50;1603510;88;21148;-72
2022/06/10 09:05:17;;;;;;;13.65;6.47;;;;;;;28.26;32.66;99647.64;1601696;89;21024;-71
2022/06/10 09:08:00;;;;;;;12.40;6.87;;;;;;;28.31;32.89;99649.30;1598486;89;21065;-76
2022/06/10 09:10:41;;;;;;;15.10;6.93;;;;;;;28.37;33.09;99650.02;1598261;89;21431;-73
2022/06/10 09:13:38;;;;;;;10.50;7.28;;;;;;;28.43;33.04;99655.46;1601454;89;21054;-71
2022/06/10 09:16:28;;;;;;;10.78;7.00;;;;;;;28.49;33.10;99645.66;1599575;89;20931;-71
2022/06/10 09:19:22;;;;;;;11.85;5.90;;;;;;;28.49;32.47;99655.34;1580267;89;21510;-71
2022/06/10 09:22:01;;;;;;;6.55;5.65;;;;;;;28.45;32.31;99643.42;1593963;88;21102;-69
2022/06/10 09:24:35;;;;;;;12.73;6.45;;;;;;;28.47;32.72;99641.09;1604405;89;21173;-70
2022/06/10 09:27:29;;;;;;;18.92;6.72;;;;;;;28.55;32.66;99648.33;1594492;89;21163;-70
2022/06/10 09:29:57;;;;;;;6.45;5.28;;;;;;;28.66;32.31;99649.89;1604503;89;21002;-69
2022/06/10 09:32:39;;;;;;;14.63;6.55;;;;;;;28.76;32.16;99650.68;1588077;89;21072;-70
2022/06/10 09:35:39;;;;;;;20.60;7.37;;;;;;;28.86;32.05;99647.86;1589172;90;21039;-69
2022/06/10 09:38:48;;;;;;;10.65;6.75;;;;;;;28.96;31.86;99659.68;1569454;91;21157;-71
2022/06/10 09:41:33;;;;;;;7.70;6.67;;;;;;;29.08;31.62;99659.45;1569325;91;21258;-70
2022/06/10 09:44:13;;;;;;;12.20;7.58;;;;;;;29.14;31.30;99648.84;1603115;88;21046;-69
2022/06/10 09:47:09;;;;;;;12.03;7.05;;;;;;;29.17;30.80;99655.81;1600095;88;21091;-72
2022/06/10 09:49:57;;;;;;;9.50;6.47;;;;;;;29.08;31.00;99650.33;1592784;90;21066;-74
2022/06/10 09:52:35;;;;;;;7.58;6.42;;;;;;;29.01;31.13;99652.44;1591892;90;21162;-74
2022/06/10 09:55:33;;;;;;;9.55;7.95;;;;;;;29.07;31.39;99658.42;1593071;90;22107;-71
2022/06/10 09:58:14;;;;;;;9.88;6.85;;;;;;;29.18;30.32;99653.84;1592820;90;20999;-73
2022/06/10 10:01:14;;;;;;;9.20;7.47;;;;;;;29.25;30.48;99656.72;1593675;88;21835;-77
2022/06/10 10:04:10;;;;;;;8.20;7.03;;;;;;;29.31;29.98;99646.91;1593728;88;21089;-74
2022/06/10 10:06:57;;;;;;;17.62;8.18;;;;;;;29.27;29.89;99656.55;1584301;89;21050;-75
2022/06/10 10:09:54;;;;;;;14.90;8.05;;;;;;;29.30;29.59;99661.94;1593000;90;21239;-73
2022/06/10 10:12:55;;;;;;;12.35;9.18;;;;;;;29.33;29.19;99655.08;1592608;90;21639;-72
2022/06/10 10:15:37;;;;;;;13.80;8.55;;;;;;;29.43;29.63;99666.09;1594118;90;20998;-72
2022/06/10 10:18:43;;;;;;;10.40;8.60;;;;;;;29.58;29.76;99660.94;1589787;90;21103;-73
2022/06/10 10:21:24;;;;;;;13.70;9.68;;;;;;;29.74;28.95;99662.89;1582069;90;21103;-72
2022/06/10 10:23:54;;;;;;;14.18;9.23;;;;;;;29.74;29.17;99657.93;1585495;90;21571;-73
2022/06/10 10:26:34;;;;;;;10.25;9.18;;;;;;;29.75;29.17;99663.11;1568724;91;20983;-72
2022/06/10 10:29:22;;;;;;;12.35;10.45;;;;;;;29.76;29.17;99663.32;1608181;89;21092;-70
2022/06/10 10:32:18;;;;;;;10.03;8.35;;;;;;;29.86;29.38;99663.23;1586445;90;21078;-69
2022/06/10 10:34:50;;;;;;;15.68;10.65;;;;;;;29.86;28.33;99659.88;1570022;91;21126;-72
2022/06/10 10:37:29;;;;;;;19.55;9.23;;;;;;;29.85;28.28;99665.20;1586597;90;21181;-71
2022/06/10 10:40:04;;;;;;;12.20;9.85;;;;;;;29.94;28.10;99663.53;1589939;90;21514;-73
2022/06/10 10:42:34;;;;;;;11.25;9.70;;;;;;;30.10;28.01;99663.31;1599858;88;21580;-73
2022/06/10 10:45:09;;;;;;;15.88;10.60;;;;;;;30.21;28.00;99654.51;1594608;90;21078;-72
2022/06/10 10:47:37;;;;;;;16.02;10.75;;;;;;;30.27;27.71;99653.76;1594807;90;21115;-72
2022/06/10 10:50:21;;;;;;;18.70;11.03;;;;;;;30.32;27.26;99663.71;1596555;88;21157;-70
2022/06/10 10:52:48;;;;;;;18.77;10.78;;;;;;;30.35;27.34;99657.41;1587309;89;21158;-72
2022/06/10 10:55:27;;;;;;;17.50;11.05;;;;;;;30.26;27.50;99655.55;1608105;88;21045;-74
2022/06/10 10:58:18;;;;;;;17.15;12.35;;;;;;;30.20;27.71;99656.48;1586495;90;21106;-72
2022/06/10 11:00:48;;;;;;;21.55;11.78;;;;;;;30.16;28.26;99647.33;1594401;90;21031;-73
2022/06/10 11:03:32;;;;;;;14.75;12.37;;;;;;;30.28;27.23;99645.65;1593029;89;21561;-71
2022/06/10 11:06:03;;;;;;;18.80;12.80;;;;;;;30.30;27.49;99644.69;1607712;89;21037;-72
2022/06/10 11:08:38;;;;;;;15.32;12.73;;;;;;;30.31;27.59;99642.72;1629797;87;20974;-73
2022/06/10 11:11:22;;;;;;;14.18;11.68;;;;;;;30.37;27.57;99646.70;1613831;88;21585;-77
2022/06/10 11:14:25;;;;;;;18.90;12.68;;;;;;;30.44;27.21;99642.62;1593732;88;21621;-74
2022/06/10 11:17:09;;;;;;;;;;;;;;;30.53;27.34;99645.89;1596127;90;21188;-73
2022/06/10 11:19:48;;;;;;;15.60;11.40;;;;;;;30.56;27.35;99646.50;1574725;89;20445;-71
2022/06/10 11:22:25;;;;;;;19.48;11.80;;;;;;;30.63;26.86;99636.05;1596497;89;21168;-71
2022/06/10 11:25:03;;;;;;;14.23;11.05;;;;;;;30.66;26.69;99643.59;1596747;89;21141;-71
2022/06/10 11:27:39;;;;;;;13.22;11.83;;;;;;;30.49;26.72;99637.33;1595298;89;21007;-72
2022/06/10 11:30:14;;;;;;;15.00;13.40;;;;;;;30.52;27.35;99632.38;1596687;89;21267;-73
2022/06/10 11:32:58;;;;;;;16.73;12.93;;;;;;;30.63;26.95;99631.30;1607881;89;21075;-71
2022/06/10 11:35:40;;;;;;;17.90;12.68;;;;;;;30.71;26.85;99626.58;1606117;89;20959;-71
2022/06/10 11:38:18;;;;;;;15.20;12.33;;;;;;;30.81;26.66;99628.63;1593338;89;21583;-73
2022/06/10 11:40:55;;;;;;;21.45;12.63;;;;;;;30.87;26.81;99618.76;1596662;89;21026;-73
2022/06/10 11:43:31;;;;;;;18.62;11.70;;;;;;;30.98;26.53;99621.02;1607709;89;21172;-77
2022/06/10 11:46:05;;;;;;;23.15;13.00;;;;;;;30.92;26.44;99614.81;1605531;89;21095;-74
2022/06/10 11:48:55;;;;;;;18.32;12.37;;;;;;;30.75;26.18;99621.84;1584136;90;21103;-75
2022/06/10 11:51:40;;;;;;;20.10;12.45;;;;;;;30.80;26.35;99628.42;1590190;90;21118;-74
2022/06/10 11:54:29;;;;;;;21.23;13.18;;;;;;;30.84;25.66;99627.08;1590914;88;21185;-75
2022/06/10 12:00:35;;;;;;;17.95;13.03;;;;;;;30.69;25.64;99624.20;1590390;90;21002;-72
2022/06/10 12:03:37;;;;;;;14.60;10.88;;;;;;;30.72;25.99;99613.70;1596138;88;21086;-72
2022/06/10 12:06:27;;;;;;;15.20;12.03;;;;;;;30.75;24.86;99622.64;1590324;88;20995;-72
2022/06/10 12:09:29;;;;;;;17.85;15.43;;;;;;;30.75;25.44;99617.09;1616515;88;21010;-75
2022/06/10 12:12:15;;;;;;;18.37;13.20;;;;;;;30.89;25.66;99615.60;1626097;87;21537;-75
2022/06/10 12:14:46;;;;;;;22.22;16.70;;;;;;;31.08;25.49;99607.78;1613465;87;22219;-77
2022/06/10 12:17:40;;;;;;;25.40;16.85;;;;;;;31.27;25.65;99610.07;1582690;90;21588;-74